Terminal Aerodrome Forecast
Issued by NWS Melbourne, FL

Current Version | Previous Version | Text Only | Print | Product List | Glossary On
Versions: 1 2 3 4 5 6 7 8 9 10 11 12 13 14 15 16 17 18 19 20 21 22 23 24
000
FTUS42 KMLB 260310 AAB
TAFMCO
TAF AMD
KMCO 260310Z 2603/2624 16003KT P6SM FEW040 SCT250
     FM261500 21006KT P6SM SCT030
     FM262100 10009KT P6SM VCTS SCT045CB BKN250=

USA.gov is the U.S. government's official web portal to all federal, state and local government web resources and services.